createdAt,value
2022-11-15T00:01:20.906Z,6.70
2022-11-15T00:03:52.453Z,6.30
2022-11-15T00:06:20.633Z,6.40
2022-11-15T00:08:48.915Z,6.30
2022-11-15T00:11:16.995Z,5.60
2022-11-15T00:13:45.437Z,5.70
2022-11-15T00:16:13.469Z,5.60
2022-11-15T00:18:45.137Z,5.30
2022-11-15T00:21:16.706Z,4.90
2022-11-15T00:23:44.799Z,4.50
2022-11-15T00:26:15.434Z,3.90
2022-11-15T00:28:43.987Z,4.20
2022-11-15T00:31:15.064Z,4.80
2022-11-15T00:33:45.288Z,4.60
2022-11-15T00:36:14.154Z,4.50
2022-11-15T00:38:42.773Z,4.60
2022-11-15T00:41:10.811Z,4.50
2022-11-15T00:43:39.022Z,4.10
2022-11-15T00:46:07.202Z,4.40
2022-11-15T00:48:35.523Z,4.00
2022-11-15T00:51:03.864Z,4.40
2022-11-15T00:53:32.161Z,4.90
2022-11-15T00:56:00.662Z,4.70
2022-11-15T00:58:28.914Z,5.70
2022-11-15T01:00:57.084Z,5.30
2022-11-15T01:03:25.473Z,5.80
2022-11-15T01:05:53.447Z,6.30
2022-11-15T01:08:21.440Z,7.00
2022-11-15T01:10:49.928Z,6.70
2022-11-15T01:13:17.933Z,8.70
2022-11-15T01:15:46.066Z,8.80
2022-11-15T01:18:14.444Z,8.90
2022-11-15T01:20:43.550Z,8.10
2022-11-15T01:23:11.823Z,10.20
2022-11-15T01:25:40.203Z,9.80
2022-11-15T01:28:08.590Z,10.00
2022-11-15T01:30:37.378Z,10.10
2022-11-15T01:33:05.968Z,10.20
2022-11-15T01:35:34.359Z,8.40
2022-11-15T01:38:02.586Z,7.40
2022-11-15T01:40:30.770Z,6.70
2022-11-15T01:42:58.888Z,6.80
2022-11-15T01:45:27.679Z,6.70
2022-11-15T01:47:57.292Z,5.90
2022-11-15T01:50:30.516Z,5.50
2022-11-15T01:52:58.967Z,4.60
2022-11-15T01:55:29.246Z,5.20
2022-11-15T01:58:04.635Z,4.80
2022-11-15T02:00:33.354Z,5.20
2022-11-15T02:03:03.245Z,5.20
2022-11-15T02:05:32.798Z,5.70
2022-11-15T02:08:01.782Z,5.30
2022-11-15T02:10:29.962Z,5.70
2022-11-15T02:13:00.356Z,5.40
2022-11-15T02:15:48.490Z,5.90
2022-11-15T02:18:45.381Z,5.10
2022-11-15T02:21:16.028Z,5.80
2022-11-15T02:24:17.024Z,4.70
2022-11-15T02:27:23.747Z,4.30
2022-11-15T02:30:03.822Z,5.40
2022-11-15T02:32:38.006Z,5.30
2022-11-15T02:35:44.468Z,5.50
2022-11-15T02:38:41.705Z,4.80
2022-11-15T02:41:19.320Z,4.90
2022-11-15T02:46:29.669Z,5.10
2022-11-15T02:48:58.151Z,5.60
2022-11-15T02:51:26.331Z,5.50
2022-11-15T02:53:54.798Z,5.40
2022-11-15T02:56:23.001Z,5.50
2022-11-15T02:59:32.619Z,5.60
2022-11-15T03:02:25.153Z,5.20
2022-11-15T03:05:03.118Z,6.50
2022-11-15T03:07:36.375Z,5.80
2022-11-15T03:10:52.875Z,5.20
2022-11-15T03:14:03.833Z,4.20
2022-11-15T03:16:41.610Z,3.70
2022-11-15T03:19:41.596Z,4.60
2022-11-15T03:22:15.553Z,4.20
2022-11-15T03:24:46.466Z,5.30
2022-11-15T03:27:18.780Z,5.00
2022-11-15T03:29:51.689Z,5.70
2022-11-15T03:32:29.189Z,4.40
2022-11-15T03:35:08.418Z,4.50
2022-11-15T03:38:00.638Z,4.40
2022-11-15T03:41:04.891Z,4.00
2022-11-15T03:43:53.574Z,4.50
2022-11-15T03:46:46.015Z,3.60
2022-11-15T03:49:21.168Z,4.20
2022-11-15T03:51:49.473Z,3.50
2022-11-15T03:54:17.528Z,3.60
2022-11-15T03:56:45.704Z,4.00
2022-11-15T03:59:13.795Z,3.80
2022-11-15T04:01:42.010Z,3.70
2022-11-15T04:04:10.395Z,3.80
2022-11-15T04:06:39.174Z,3.80
2022-11-15T04:09:07.404Z,4.50
2022-11-15T04:11:35.626Z,4.40
2022-11-15T04:14:03.689Z,4.80
2022-11-15T04:16:31.756Z,4.00
2022-11-15T04:18:59.861Z,4.20
2022-11-15T04:21:27.987Z,4.30
2022-11-15T04:23:56.168Z,3.90
2022-11-15T04:26:24.845Z,3.70
2022-11-15T04:28:52.909Z,3.80
2022-11-15T04:31:20.968Z,3.50
2022-11-15T04:33:49.219Z,3.50
2022-11-15T04:36:17.273Z,5.30
2022-11-15T04:38:45.745Z,3.90
2022-11-15T04:41:14.534Z,3.80
2022-11-15T04:43:42.712Z,3.80
2022-11-15T04:46:10.810Z,3.30
2022-11-15T04:48:39.095Z,3.80
2022-11-15T04:51:07.389Z,4.30
2022-11-15T04:53:35.455Z,4.00
2022-11-15T04:56:04.320Z,4.50
2022-11-15T04:58:32.420Z,3.90
2022-11-15T05:01:09.174Z,3.30
2022-11-15T05:03:37.766Z,4.10
2022-11-15T05:06:06.791Z,3.70
2022-11-15T05:08:34.858Z,4.30
2022-11-15T05:11:02.935Z,3.60
2022-11-15T05:13:31.331Z,3.60
2022-11-15T05:15:59.790Z,3.30
2022-11-15T05:18:27.817Z,3.60
2022-11-15T05:20:56.236Z,3.60
2022-11-15T05:23:24.727Z,3.00
2022-11-15T05:25:52.940Z,3.60
2022-11-15T05:28:21.181Z,3.20
2022-11-15T05:30:49.361Z,4.00
2022-11-15T05:33:18.257Z,3.40
2022-11-15T05:35:57.858Z,4.00
2022-11-15T05:38:26.357Z,3.50
2022-11-15T05:40:55.378Z,3.50
2022-11-15T05:43:24.666Z,3.40
2022-11-15T05:45:52.959Z,3.50
2022-11-15T05:48:21.357Z,3.30
2022-11-15T05:50:50.026Z,3.30
2022-11-15T05:53:22.350Z,3.90
2022-11-15T05:55:50.791Z,3.80
2022-11-15T05:58:21.619Z,4.70
2022-11-15T06:00:49.793Z,3.70
2022-11-15T06:03:17.928Z,4.80
2022-11-15T06:05:45.992Z,5.10
2022-11-15T06:08:14.048Z,4.60
2022-11-15T06:10:42.751Z,4.20
2022-11-15T06:13:11.045Z,4.50
2022-11-15T06:15:39.085Z,4.60
2022-11-15T06:18:07.495Z,4.90
2022-11-15T06:20:35.593Z,5.00
2022-11-15T06:23:05.888Z,5.00
2022-11-15T06:25:34.305Z,5.10
2022-11-15T06:28:02.393Z,4.80
2022-11-15T06:30:30.457Z,4.90
2022-11-15T06:33:03.732Z,5.20
2022-11-15T06:35:34.770Z,4.60
2022-11-15T06:38:08.121Z,4.60
2022-11-15T06:40:38.078Z,5.20
2022-11-15T06:43:07.111Z,4.70
2022-11-15T06:45:35.765Z,4.90
2022-11-15T06:48:03.958Z,5.20
2022-11-15T06:50:32.020Z,4.90
2022-11-15T06:53:05.402Z,5.60
2022-11-15T06:55:33.450Z,5.70
2022-11-15T06:58:01.490Z,5.50
2022-11-15T07:00:29.678Z,5.30
2022-11-15T07:03:01.205Z,5.20
2022-11-15T07:05:29.641Z,5.80
2022-11-15T07:07:59.646Z,5.40
2022-11-15T07:10:28.509Z,5.80
2022-11-15T07:12:57.675Z,5.40
2022-11-15T07:15:26.986Z,5.30
2022-11-15T07:17:55.068Z,5.10
2022-11-15T07:20:23.237Z,4.80
2022-11-15T07:22:51.383Z,4.30
2022-11-15T07:25:21.779Z,4.10
2022-11-15T07:27:56.550Z,4.20
2022-11-15T07:30:26.551Z,3.70
2022-11-15T07:33:01.644Z,3.40
2022-11-15T07:35:31.067Z,3.20
2022-11-15T07:38:01.862Z,3.30
2022-11-15T07:40:32.461Z,3.40
2022-11-15T07:43:05.707Z,3.20
2022-11-15T07:45:33.883Z,2.90
2022-11-15T07:48:02.684Z,4.30
2022-11-15T07:50:30.952Z,3.60
2022-11-15T07:53:01.179Z,4.00
2022-11-15T07:55:29.970Z,3.90
2022-11-15T07:58:06.211Z,3.90
2022-11-15T08:00:35.389Z,3.70
2022-11-15T08:03:12.105Z,4.40
2022-11-15T08:05:41.824Z,3.80
2022-11-15T08:08:12.106Z,4.30
2022-11-15T08:10:40.928Z,4.00
2022-11-15T08:13:11.893Z,5.10
2022-11-15T08:15:40.492Z,4.40
2022-11-15T08:18:14.789Z,4.30
2022-11-15T08:20:43.988Z,4.30
2022-11-15T08:23:13.090Z,4.10
2022-11-15T08:25:41.508Z,4.10
2022-11-15T08:28:11.696Z,4.50
2022-11-15T08:30:42.749Z,4.20
2022-11-15T08:33:13.591Z,5.30
2022-11-15T08:35:45.654Z,4.90
2022-11-15T08:38:13.863Z,5.20
2022-11-15T08:40:42.209Z,5.50
2022-11-15T08:43:10.799Z,5.40
2022-11-15T08:45:39.081Z,5.70
2022-11-15T08:48:07.354Z,6.20
2022-11-15T08:50:35.843Z,5.30
2022-11-15T08:53:09.956Z,4.70
2022-11-15T08:55:39.466Z,4.10
2022-11-15T08:58:07.950Z,4.10
2022-11-15T09:00:35.993Z,4.40
2022-11-15T09:03:08.205Z,4.00
2022-11-15T09:05:39.341Z,5.50
2022-11-15T09:08:25.600Z,5.20
2022-11-15T09:10:56.280Z,4.90
2022-11-15T09:13:24.567Z,5.20
2022-11-15T09:15:52.730Z,5.90
2022-11-15T09:18:22.339Z,5.30
2022-11-15T09:20:50.666Z,5.10
2022-11-15T09:23:19.008Z,5.20
2022-11-15T09:25:47.289Z,5.00
2022-11-15T09:28:15.470Z,5.00
2022-11-15T09:30:43.637Z,4.70
2022-11-15T09:33:13.457Z,4.90
2022-11-15T09:35:41.841Z,6.10
2022-11-15T09:38:09.911Z,6.70
2022-11-15T09:40:38.807Z,5.70
2022-11-15T09:43:25.507Z,6.50
2022-11-15T09:46:11.390Z,6.50
2022-11-15T09:49:02.285Z,6.00
2022-11-15T09:51:39.675Z,5.70
2022-11-15T09:57:16.540Z,5.40
2022-11-15T09:59:44.837Z,5.50
2022-11-15T10:02:34.507Z,6.10
2022-11-15T10:05:03.515Z,5.60
2022-11-15T10:07:43.958Z,5.90
2022-11-15T10:10:25.874Z,5.10
2022-11-15T10:12:54.743Z,5.00
2022-11-15T10:15:23.236Z,5.00
2022-11-15T10:17:57.345Z,5.50
2022-11-15T10:20:28.623Z,6.70
2022-11-15T10:23:01.488Z,5.90
2022-11-15T10:25:32.625Z,6.90
2022-11-15T10:28:11.290Z,7.60
2022-11-15T10:30:51.940Z,7.80
2022-11-15T10:33:38.424Z,7.30
2022-11-15T10:36:20.721Z,6.80
2022-11-15T10:38:51.688Z,6.80
2022-11-15T10:41:30.183Z,7.10
2022-11-15T10:44:18.447Z,7.60
2022-11-15T10:47:06.683Z,7.60
2022-11-15T10:49:36.299Z,7.70
2022-11-15T10:52:18.126Z,8.20
2022-11-15T10:54:58.753Z,7.40
2022-11-15T10:57:31.810Z,6.50
2022-11-15T11:00:03.763Z,6.60
2022-11-15T11:02:38.144Z,6.70
2022-11-15T11:05:26.807Z,6.20
2022-11-15T11:08:01.252Z,5.60
2022-11-15T11:10:50.288Z,5.30
2022-11-15T11:13:30.639Z,6.50
2022-11-15T11:16:20.718Z,8.50
2022-11-15T11:18:49.203Z,10.90
2022-11-15T11:21:45.520Z,9.90
2022-11-15T11:24:35.702Z,10.40
2022-11-15T11:27:17.796Z,11.90
2022-11-15T11:29:48.845Z,12.20
2022-11-15T11:32:41.819Z,13.00
2022-11-15T11:35:18.764Z,11.90
2022-11-15T11:38:05.155Z,11.20
2022-11-15T11:40:51.693Z,12.40
2022-11-15T11:43:33.917Z,11.50
2022-11-15T11:46:11.200Z,9.20
2022-11-15T11:48:45.323Z,9.10
2022-11-15T11:51:24.582Z,8.50
2022-11-15T11:54:12.513Z,5.70
2022-11-15T11:56:44.414Z,5.20
2022-11-15T11:59:32.302Z,6.70
2022-11-15T12:04:42.137Z,7.60
2022-11-15T12:07:18.680Z,8.20
2022-11-15T12:10:08.815Z,8.60
2022-11-15T12:12:43.884Z,7.10
2022-11-15T12:15:19.522Z,7.70
2022-11-15T12:17:49.356Z,7.40
2022-11-15T12:20:21.906Z,7.50
2022-11-15T12:23:18.830Z,7.90
2022-11-15T12:25:53.040Z,8.20
2022-11-15T12:28:27.460Z,7.70
2022-11-15T12:31:03.010Z,8.20
2022-11-15T12:33:47.508Z,8.30
2022-11-15T12:36:21.981Z,8.40
2022-11-15T12:38:55.073Z,8.80
2022-11-15T12:41:26.218Z,8.40
2022-11-15T12:43:54.599Z,7.70
2022-11-15T12:46:25.954Z,7.60
2022-11-15T12:48:57.466Z,7.40
2022-11-15T12:51:44.001Z,7.00
2022-11-15T12:54:24.586Z,7.00
2022-11-15T12:57:05.125Z,6.80
2022-11-15T13:00:04.007Z,7.00
2022-11-15T13:02:39.835Z,7.40
2022-11-15T13:05:17.146Z,7.50
2022-11-15T13:17:54.510Z,7.60
2022-11-15T13:20:31.389Z,6.90
2022-11-15T13:22:59.460Z,7.00
2022-11-15T13:25:49.426Z,8.30
2022-11-15T13:28:17.623Z,8.30
2022-11-15T13:30:48.759Z,8.40
2022-11-15T13:33:20.492Z,8.60
2022-11-15T13:35:57.863Z,9.00
2022-11-15T13:38:26.098Z,7.50
2022-11-15T13:40:54.721Z,7.40
2022-11-15T13:43:22.855Z,7.50
2022-11-15T13:46:19.380Z,6.90
2022-11-15T13:48:56.665Z,7.10
2022-11-15T13:54:02.206Z,5.70
2022-11-15T13:56:33.279Z,5.60
2022-11-15T13:59:09.659Z,5.20
2022-11-15T14:01:38.325Z,5.20
2022-11-15T14:04:06.511Z,4.60
2022-11-15T14:06:47.175Z,3.90
2022-11-15T14:09:15.620Z,4.20
2022-11-15T14:11:55.405Z,3.50
2022-11-15T14:14:28.802Z,3.50
2022-11-15T14:16:59.701Z,3.90
2022-11-15T14:19:28.016Z,4.90
2022-11-15T14:22:14.253Z,3.90
2022-11-15T14:24:45.377Z,3.80
2022-11-15T14:27:31.333Z,3.70
2022-11-15T14:29:59.729Z,4.00
2022-11-15T14:32:43.662Z,3.70
2022-11-15T14:35:16.905Z,3.70
2022-11-15T14:37:45.754Z,4.10
2022-11-15T14:40:18.769Z,3.70
2022-11-15T14:42:48.853Z,3.60
2022-11-15T14:45:19.625Z,3.40
2022-11-15T14:47:48.895Z,2.80
2022-11-15T14:50:19.960Z,3.00
2022-11-15T14:52:49.455Z,2.40
2022-11-15T14:55:26.447Z,2.20
2022-11-15T14:57:54.715Z,1.90
2022-11-15T15:00:23.812Z,2.00
2022-11-15T15:02:54.736Z,1.80
2022-11-15T15:05:43.490Z,1.70
2022-11-15T15:08:12.172Z,2.00
2022-11-15T15:10:43.907Z,1.70
2022-11-15T15:13:19.454Z,1.80
2022-11-15T15:15:48.693Z,1.80
2022-11-15T15:18:17.745Z,1.90
2022-11-15T15:20:48.825Z,1.70
2022-11-15T15:23:21.416Z,1.50
2022-11-15T15:25:50.203Z,1.60
2022-11-15T15:28:18.671Z,1.50
2022-11-15T15:30:46.873Z,1.70
2022-11-15T15:33:15.150Z,2.90
2022-11-15T15:35:43.551Z,2.80
2022-11-15T15:38:14.988Z,2.80
2022-11-15T15:40:43.068Z,2.40
2022-11-15T15:43:11.188Z,3.00
2022-11-15T15:45:42.303Z,3.10
2022-11-15T15:48:14.086Z,2.90
2022-11-15T15:50:43.040Z,2.20
2022-11-15T15:53:12.754Z,2.70
2022-11-15T15:55:41.237Z,2.40
2022-11-15T15:58:09.879Z,2.50
2022-11-15T16:00:39.236Z,2.40
2022-11-15T16:03:07.632Z,2.40
2022-11-15T16:05:35.900Z,2.40
2022-11-15T16:08:05.305Z,2.30
2022-11-15T16:10:35.438Z,2.50
2022-11-15T16:13:04.433Z,2.60
2022-11-15T16:15:33.347Z,2.20
2022-11-15T16:18:02.659Z,2.10
2022-11-15T16:20:40.629Z,2.70
2022-11-15T16:23:11.875Z,2.50
2022-11-15T16:25:50.291Z,2.30
2022-11-15T16:28:24.847Z,2.30
2022-11-15T16:31:09.772Z,2.70
2022-11-15T16:33:38.792Z,2.90
2022-11-15T16:36:15.687Z,2.70
2022-11-15T16:38:44.128Z,3.20
2022-11-15T16:41:12.309Z,3.10
2022-11-15T16:43:40.486Z,2.70
2022-11-15T16:46:15.404Z,2.60
2022-11-15T16:48:43.929Z,2.70
2022-11-15T16:51:12.901Z,3.10
2022-11-15T16:53:41.692Z,2.00
2022-11-15T16:56:30.364Z,2.20
2022-11-15T16:59:00.764Z,2.60
2022-11-15T17:01:31.708Z,2.20
2022-11-15T17:04:00.199Z,2.10
2022-11-15T17:06:28.779Z,1.90
2022-11-15T17:08:57.369Z,2.00
2022-11-15T17:11:25.657Z,1.80
2022-11-15T17:13:58.547Z,2.00
2022-11-15T17:16:26.814Z,1.90
2022-11-15T17:18:55.158Z,2.40
2022-11-15T17:21:23.687Z,2.30
2022-11-15T17:23:51.894Z,2.60
2022-11-15T17:26:40.307Z,2.80
2022-11-15T17:29:08.994Z,2.40
2022-11-15T17:31:38.194Z,3.10
2022-11-15T17:34:07.135Z,2.50
2022-11-15T17:36:35.574Z,2.60
2022-11-15T17:39:04.896Z,2.30
2022-11-15T17:41:33.059Z,3.00
2022-11-15T17:44:01.439Z,2.90
2022-11-15T17:46:30.333Z,2.40
2022-11-15T17:48:59.025Z,2.80
2022-11-15T17:51:27.202Z,3.10
2022-11-15T17:53:56.313Z,3.00
2022-11-15T17:56:26.906Z,3.10
2022-11-15T17:58:58.731Z,3.10
2022-11-15T18:01:28.286Z,3.00
2022-11-15T18:03:57.932Z,3.70
2022-11-15T18:06:27.545Z,3.10
2022-11-15T18:08:56.130Z,3.00
2022-11-15T18:11:27.890Z,2.90
2022-11-15T18:14:00.768Z,3.00
2022-11-15T18:16:31.868Z,3.00
2022-11-15T18:19:00.711Z,3.10
2022-11-15T18:21:31.554Z,3.20
2022-11-15T18:24:01.669Z,3.10
2022-11-15T18:26:30.968Z,2.90
2022-11-15T18:29:04.776Z,2.80
2022-11-15T18:31:33.256Z,2.70
2022-11-15T18:34:01.671Z,3.10
2022-11-15T18:36:31.330Z,3.10
2022-11-15T18:39:02.052Z,3.40
2022-11-15T18:41:31.467Z,3.30
2022-11-15T18:44:01.414Z,2.90
2022-11-15T18:46:32.473Z,3.60
2022-11-15T18:49:02.278Z,3.20
2022-11-15T18:51:31.613Z,3.10
2022-11-15T18:54:01.904Z,3.20
2022-11-15T18:56:31.984Z,3.10
2022-11-15T18:59:02.415Z,3.10
2022-11-15T19:01:34.826Z,3.30
2022-11-15T19:04:13.014Z,5.70
2022-11-15T19:06:43.470Z,5.60
2022-11-15T19:09:15.205Z,5.80
2022-11-15T19:11:45.864Z,9.00
2022-11-15T19:14:19.571Z,3.80
2022-11-15T19:16:48.768Z,4.40
2022-11-15T19:19:19.716Z,3.70
2022-11-15T19:21:48.296Z,4.10
2022-11-15T19:24:16.373Z,4.30
2022-11-15T19:26:44.970Z,4.40
2022-11-15T19:29:13.155Z,3.90
2022-11-15T19:31:42.466Z,3.80
2022-11-15T19:34:11.545Z,3.80
2022-11-15T19:36:44.447Z,4.20
2022-11-15T19:39:14.415Z,3.80
2022-11-15T19:41:44.098Z,3.60
2022-11-15T19:44:13.309Z,4.10
2022-11-15T19:46:42.160Z,3.70
2022-11-15T19:49:11.219Z,4.10
2022-11-15T19:51:40.455Z,4.00
2022-11-15T19:54:09.277Z,5.30
2022-11-15T19:56:38.249Z,4.20
2022-11-15T19:59:06.731Z,4.10
2022-11-15T20:01:36.615Z,4.70
2022-11-15T20:04:06.568Z,4.30
2022-11-15T20:06:38.873Z,4.40
2022-11-15T20:09:07.528Z,4.50
2022-11-15T20:11:35.707Z,4.70
2022-11-15T20:14:04.295Z,3.90
2022-11-15T20:16:32.679Z,5.00
2022-11-15T20:19:01.266Z,5.50
2022-11-15T20:21:29.859Z,3.90
2022-11-15T20:23:57.929Z,3.80
2022-11-15T20:26:26.325Z,3.70
2022-11-15T20:28:54.592Z,3.20
2022-11-15T20:31:22.772Z,3.40
2022-11-15T20:33:51.871Z,3.10
2022-11-15T20:36:20.055Z,2.90
2022-11-15T20:38:48.200Z,3.50
2022-11-15T20:41:16.411Z,2.80
2022-11-15T20:43:44.994Z,2.60
2022-11-15T20:46:13.788Z,2.40
2022-11-15T20:48:41.863Z,2.50
2022-11-15T20:51:13.132Z,3.00
2022-11-15T20:53:45.693Z,2.50
2022-11-15T20:56:16.521Z,2.20
2022-11-15T20:58:45.527Z,1.90
2022-11-15T21:01:15.331Z,2.00
2022-11-15T21:03:43.947Z,2.50
2022-11-15T21:06:12.414Z,2.00
2022-11-15T21:08:40.591Z,2.50
2022-11-15T21:11:09.690Z,2.20
2022-11-15T21:13:39.300Z,2.30
2022-11-15T21:16:08.094Z,1.90
2022-11-15T21:18:36.502Z,1.80
2022-11-15T21:21:05.986Z,1.70
2022-11-15T21:23:34.062Z,2.20
2022-11-15T21:26:02.250Z,1.80
2022-11-15T21:28:31.268Z,2.20
2022-11-15T21:31:00.955Z,2.10
2022-11-15T21:33:29.437Z,2.20
2022-11-15T21:35:58.149Z,2.90
2022-11-15T21:38:28.455Z,2.30
2022-11-15T21:40:56.838Z,3.00
2022-11-15T21:43:25.116Z,2.30
2022-11-15T21:46:01.076Z,1.90
2022-11-15T21:48:31.508Z,2.30
2022-11-15T21:51:02.439Z,2.00
2022-11-15T21:53:31.237Z,2.10
2022-11-15T21:56:00.439Z,2.90
2022-11-15T21:58:29.167Z,2.20
2022-11-15T22:00:58.138Z,2.40
2022-11-15T22:03:26.209Z,2.40
2022-11-15T22:05:54.891Z,2.00
2022-11-15T22:08:23.069Z,2.20
2022-11-15T22:10:51.901Z,1.50
2022-11-15T22:13:20.350Z,1.90
2022-11-15T22:15:48.528Z,1.40
2022-11-15T22:18:16.703Z,1.70
2022-11-15T22:21:02.488Z,1.90
2022-11-15T22:23:33.158Z,2.00
2022-11-15T22:26:02.322Z,2.20
2022-11-15T22:28:30.931Z,2.50
2022-11-15T22:30:59.802Z,2.00
2022-11-15T22:33:30.514Z,1.90
2022-11-15T22:35:59.228Z,1.50
2022-11-15T22:38:28.228Z,1.40
2022-11-15T22:40:57.119Z,1.20
2022-11-15T22:43:26.415Z,1.20
2022-11-15T22:45:55.728Z,1.30
2022-11-15T22:48:33.052Z,1.40
2022-11-15T22:51:01.814Z,1.60
2022-11-15T22:53:30.804Z,2.00
2022-11-15T22:56:01.233Z,2.80
2022-11-15T22:58:31.763Z,3.30
2022-11-15T23:01:03.142Z,3.50
2022-11-15T23:03:32.705Z,4.00
2022-11-15T23:06:07.937Z,3.80
2022-11-15T23:08:36.333Z,4.30
2022-11-15T23:11:05.461Z,4.60
2022-11-15T23:13:34.317Z,3.70
2022-11-15T23:16:07.932Z,4.10
2022-11-15T23:18:40.832Z,4.20
2022-11-15T23:21:14.660Z,4.30
2022-11-15T23:23:42.817Z,4.10
2022-11-15T23:26:11.096Z,3.80
2022-11-15T23:28:39.480Z,4.10
2022-11-15T23:31:08.372Z,4.70
2022-11-15T23:33:36.756Z,4.40
2022-11-15T23:36:05.555Z,3.80
2022-11-15T23:38:37.417Z,3.60
2022-11-15T23:41:06.727Z,4.00
2022-11-15T23:43:35.013Z,3.80
2022-11-15T23:46:03.757Z,3.80
2022-11-15T23:48:32.468Z,3.40
2022-11-15T23:51:00.862Z,2.80
2022-11-15T23:53:29.457Z,2.30
2022-11-15T23:56:01.757Z,2.60
2022-11-15T23:58:30.655Z,2.90
